createdAt,value
2022-11-13T00:00:03.263Z,990.82
2022-11-13T00:01:03.249Z,990.88
2022-11-13T00:02:03.277Z,990.88
2022-11-13T00:03:03.310Z,990.82
2022-11-13T00:04:03.333Z,990.91
2022-11-13T00:05:03.552Z,990.91
2022-11-13T00:06:03.539Z,990.82
2022-11-13T00:07:03.584Z,990.63
2022-11-13T00:08:03.499Z,990.71
2022-11-13T00:09:03.497Z,990.85
2022-11-13T00:10:03.409Z,990.74
2022-11-13T00:11:03.538Z,990.71
2022-11-13T00:12:03.708Z,990.77
2022-11-13T00:13:03.759Z,990.80
2022-11-13T00:14:03.867Z,990.74
2022-11-13T00:15:03.829Z,990.74
2022-11-13T00:16:03.882Z,990.74
2022-11-13T00:17:03.034Z,990.66
2022-11-13T00:18:02.997Z,990.57
2022-11-13T00:19:03.004Z,990.63
2022-11-13T00:20:03.193Z,990.60
2022-11-13T00:21:03.074Z,990.57
2022-11-13T00:22:03.106Z,990.57
2022-11-13T00:23:03.223Z,990.55
2022-11-13T00:24:03.194Z,990.77
2022-11-13T00:25:03.271Z,990.52
2022-11-13T00:26:03.309Z,990.63
2022-11-13T00:27:03.293Z,990.58
2022-11-13T00:28:03.470Z,990.69
2022-11-13T00:29:03.566Z,990.77
2022-11-13T00:30:03.506Z,990.74
2022-11-13T00:31:03.485Z,990.60
2022-11-13T00:32:03.505Z,990.63
2022-11-13T00:33:03.531Z,990.42
2022-11-13T00:34:46.900Z,990.49
2022-11-13T00:35:03.605Z,990.55
2022-11-13T00:36:03.601Z,990.72
2022-11-13T00:37:03.532Z,990.63
2022-11-13T00:38:03.258Z,990.58
2022-11-13T00:39:03.315Z,990.44
2022-11-13T00:40:03.272Z,990.49
2022-11-13T00:41:03.286Z,990.47
2022-11-13T00:42:03.540Z,990.42
2022-11-13T00:43:03.570Z,990.39
2022-11-13T00:44:03.604Z,990.47
2022-11-13T00:45:03.617Z,990.33
2022-11-13T00:46:03.671Z,990.47
2022-11-13T00:47:03.589Z,990.33
2022-11-13T00:48:03.695Z,990.39
2022-11-13T00:49:03.592Z,990.36
2022-11-13T00:50:03.661Z,990.34
2022-11-13T00:51:03.595Z,990.34
2022-11-13T00:52:03.649Z,990.31
2022-11-13T00:53:03.807Z,990.22
2022-11-13T00:54:03.020Z,990.20
2022-11-13T00:55:03.026Z,990.25
2022-11-13T00:56:03.181Z,990.36
2022-11-13T00:57:03.351Z,990.25
2022-11-13T00:58:03.581Z,990.22
2022-11-13T00:59:03.681Z,990.20
2022-11-13T01:00:03.717Z,990.08
2022-11-13T01:01:03.770Z,990.14
2022-11-13T01:02:04.010Z,990.11
2022-11-13T01:03:03.762Z,990.20
2022-11-13T01:04:03.834Z,990.14
2022-11-13T01:05:02.955Z,990.39
2022-11-13T01:06:02.918Z,990.03
2022-11-13T01:07:03.163Z,990.09
2022-11-13T01:08:03.007Z,989.95
2022-11-13T01:09:03.186Z,990.09
2022-11-13T01:10:03.619Z,990.09
2022-11-13T01:11:03.524Z,990.03
2022-11-13T01:12:03.578Z,990.11
2022-11-13T01:13:03.378Z,990.11
2022-11-13T01:14:03.406Z,990.23
2022-11-13T01:15:03.561Z,989.98
2022-11-13T01:16:03.500Z,990.14
2022-11-13T01:17:03.525Z,990.09
2022-11-13T01:18:03.586Z,990.14
2022-11-13T01:19:03.567Z,990.12
2022-11-13T01:20:03.582Z,989.89
2022-11-13T01:21:03.657Z,990.20
2022-11-13T01:22:03.506Z,990.12
2022-11-13T01:23:03.635Z,990.03
2022-11-13T01:24:03.396Z,989.98
2022-11-13T01:25:03.460Z,989.98
2022-11-13T01:26:03.438Z,990.15
2022-11-13T01:27:03.570Z,990.03
2022-11-13T01:28:03.418Z,989.92
2022-11-13T01:29:02.888Z,989.87
2022-11-13T01:30:03.896Z,989.98
2022-11-13T01:31:03.007Z,990.06
2022-11-13T01:32:02.992Z,990.06
2022-11-13T01:33:02.928Z,989.95
2022-11-13T01:34:03.026Z,990.04
2022-11-13T01:35:03.082Z,989.95
2022-11-13T01:36:03.098Z,990.06
2022-11-13T01:37:03.663Z,989.95
2022-11-13T01:38:03.676Z,989.90
2022-11-13T01:39:03.682Z,989.87
2022-11-13T01:40:03.949Z,989.92
2022-11-13T01:41:03.851Z,989.78
2022-11-13T01:42:03.802Z,989.81
2022-11-13T01:43:03.893Z,989.81
2022-11-13T01:44:02.900Z,989.87
2022-11-13T01:45:02.979Z,989.75
2022-11-13T01:46:03.010Z,989.68
2022-11-13T01:47:02.997Z,989.75
2022-11-13T01:48:03.020Z,989.68
2022-11-13T01:49:03.135Z,989.68
2022-11-13T01:50:03.255Z,989.70
2022-11-13T01:51:02.945Z,989.68
2022-11-13T01:52:03.948Z,989.65
2022-11-13T01:53:03.059Z,989.68
2022-11-13T01:54:03.089Z,989.63
2022-11-13T01:55:02.907Z,989.84
2022-11-13T01:56:03.102Z,989.51
2022-11-13T01:57:03.037Z,989.57
2022-11-13T01:58:03.087Z,989.46
2022-11-13T01:59:03.005Z,989.68
2022-11-13T02:00:03.538Z,989.51
2022-11-13T02:01:03.367Z,989.46
2022-11-13T02:02:03.562Z,989.49
2022-11-13T02:03:03.540Z,989.70
2022-11-13T02:04:03.655Z,989.60
2022-11-13T02:05:03.760Z,989.51
2022-11-13T02:06:03.805Z,989.51
2022-11-13T02:07:03.995Z,989.51
2022-11-13T02:08:02.981Z,989.49
2022-11-13T02:09:02.949Z,989.49
2022-11-13T02:10:02.966Z,989.38
2022-11-13T02:11:03.049Z,989.49
2022-11-13T02:12:03.061Z,989.52
2022-11-13T02:13:03.006Z,989.46
2022-11-13T02:14:03.239Z,989.35
2022-11-13T02:15:03.270Z,989.40
2022-11-13T02:16:03.775Z,989.40
2022-11-13T02:17:03.845Z,989.60
2022-11-13T02:18:03.388Z,989.46
2022-11-13T02:19:03.083Z,989.57
2022-11-13T02:20:03.096Z,989.41
2022-11-13T02:21:03.248Z,989.32
2022-11-13T02:22:03.246Z,989.32
2022-11-13T02:23:03.261Z,989.29
2022-11-13T02:24:03.389Z,989.49
2022-11-13T02:25:03.318Z,989.43
2022-11-13T02:26:03.675Z,989.32
2022-11-13T02:27:03.664Z,989.35
2022-11-13T02:28:03.916Z,989.27
2022-11-13T02:29:03.326Z,989.38
2022-11-13T02:30:03.408Z,989.41
2022-11-13T02:31:03.476Z,989.32
2022-11-13T02:32:03.504Z,989.27
2022-11-13T02:33:03.773Z,989.21
2022-11-13T02:34:03.860Z,989.24
2022-11-13T02:35:02.915Z,989.49
2022-11-13T02:36:02.956Z,989.30
2022-11-13T02:37:03.040Z,989.27
2022-11-13T02:38:03.124Z,989.30
2022-11-13T02:39:03.144Z,989.30
2022-11-13T02:40:03.215Z,989.24
2022-11-13T02:41:03.254Z,989.24
2022-11-13T02:42:03.228Z,989.21
2022-11-13T02:43:03.236Z,989.24
2022-11-13T02:44:03.527Z,989.21
2022-11-13T02:45:03.427Z,989.27
2022-11-13T02:46:03.414Z,989.33
2022-11-13T02:47:03.420Z,989.30
2022-11-13T02:48:03.579Z,989.13
2022-11-13T02:49:03.692Z,989.22
2022-11-13T02:50:03.797Z,989.30
2022-11-13T02:51:03.752Z,989.22
2022-11-13T02:52:03.894Z,989.41
2022-11-13T02:53:03.878Z,989.36
2022-11-13T02:54:03.878Z,989.30
2022-11-13T02:55:03.859Z,989.33
2022-11-13T02:56:02.994Z,989.33
2022-11-13T02:57:03.132Z,989.25
2022-11-13T02:58:03.134Z,989.33
2022-11-13T02:59:03.166Z,989.36
2022-11-13T03:00:03.020Z,989.25
2022-11-13T03:01:03.205Z,989.39
2022-11-13T03:02:03.370Z,989.44
2022-11-13T03:03:03.168Z,989.39
2022-11-13T03:04:03.205Z,989.25
2022-11-13T03:05:13.774Z,989.30
2022-11-13T03:06:03.294Z,989.19
2022-11-13T03:07:03.311Z,989.22
2022-11-13T03:08:03.359Z,989.28
2022-11-13T03:09:03.113Z,989.22
2022-11-13T03:10:03.859Z,989.33
2022-11-13T03:11:03.047Z,989.36
2022-11-13T03:12:02.952Z,989.42
2022-11-13T03:13:03.029Z,989.30
2022-11-13T03:14:03.020Z,989.19
2022-11-13T03:15:03.109Z,989.22
2022-11-13T03:16:03.100Z,989.19
2022-11-13T03:17:03.158Z,989.28
2022-11-13T03:18:03.197Z,989.25
2022-11-13T03:19:03.177Z,989.28
2022-11-13T03:20:03.258Z,989.28
2022-11-13T03:21:03.498Z,989.16
2022-11-13T03:22:03.502Z,989.30
2022-11-13T03:23:03.604Z,989.33
2022-11-13T03:24:03.675Z,989.17
2022-11-13T03:25:10.859Z,989.30
2022-11-13T03:26:03.764Z,989.17
2022-11-13T03:27:03.774Z,989.14
2022-11-13T03:28:03.802Z,989.17
2022-11-13T03:29:03.842Z,989.19
2022-11-13T03:30:03.810Z,989.22
2022-11-13T03:31:03.830Z,989.31
2022-11-13T03:32:03.683Z,989.25
2022-11-13T03:33:03.761Z,989.05
2022-11-13T03:34:03.790Z,989.22
2022-11-13T03:35:03.686Z,989.20
2022-11-13T03:36:03.905Z,989.20
2022-11-13T03:37:03.799Z,989.34
2022-11-13T03:38:03.740Z,989.06
2022-11-13T03:39:03.837Z,989.22
2022-11-13T03:40:03.750Z,989.11
2022-11-13T03:41:03.823Z,989.11
2022-11-13T03:42:03.837Z,989.34
2022-11-13T03:43:03.935Z,989.14
2022-11-13T03:44:03.892Z,989.28
2022-11-13T03:45:02.944Z,989.34
2022-11-13T03:46:02.958Z,989.22
2022-11-13T03:47:02.975Z,989.14
2022-11-13T03:48:02.963Z,989.22
2022-11-13T03:49:02.996Z,989.11
2022-11-13T03:50:03.056Z,989.17
2022-11-13T03:51:03.064Z,989.31
2022-11-13T03:52:03.197Z,989.25
2022-11-13T03:53:03.094Z,989.14
2022-11-13T03:54:03.137Z,989.20
2022-11-13T03:55:03.088Z,989.17
2022-11-13T03:56:03.296Z,989.39
2022-11-13T03:57:03.303Z,989.28
2022-11-13T03:58:03.172Z,989.14
2022-11-13T03:59:03.314Z,989.09
2022-11-13T04:00:03.384Z,989.34
2022-11-13T04:01:03.848Z,989.14
2022-11-13T04:02:03.779Z,989.20
2022-11-13T04:03:03.748Z,989.17
2022-11-13T04:04:03.962Z,989.26
2022-11-13T04:05:03.847Z,989.06
2022-11-13T04:06:03.860Z,989.23
2022-11-13T04:07:03.079Z,989.09
2022-11-13T04:08:03.017Z,989.12
2022-11-13T04:09:03.585Z,989.01
2022-11-13T04:10:03.640Z,989.01
2022-11-13T04:11:03.480Z,989.06
2022-11-13T04:12:03.490Z,989.03
2022-11-13T04:13:03.527Z,988.95
2022-11-13T04:14:03.367Z,989.01
2022-11-13T04:15:03.456Z,989.17
2022-11-13T04:16:03.519Z,988.92
2022-11-13T04:17:03.590Z,989.01
2022-11-13T04:18:03.499Z,989.01
2022-11-13T04:19:03.441Z,988.98
2022-11-13T04:20:03.487Z,989.09
2022-11-13T04:21:02.902Z,989.06
2022-11-13T04:22:02.954Z,988.95
2022-11-13T04:23:02.965Z,989.04
2022-11-13T04:24:02.930Z,989.07
2022-11-13T04:25:03.291Z,989.01
2022-11-13T04:26:03.804Z,989.12
2022-11-13T04:27:03.833Z,988.95
2022-11-13T04:28:03.836Z,989.09
2022-11-13T04:29:02.956Z,989.01
2022-11-13T04:30:03.052Z,989.07
2022-11-13T04:31:03.098Z,988.93
2022-11-13T04:32:03.206Z,989.01
2022-11-13T04:33:03.505Z,988.98
2022-11-13T04:34:03.553Z,988.96
2022-11-13T04:35:03.621Z,989.01
2022-11-13T04:36:03.574Z,988.96
2022-11-13T04:37:03.621Z,989.01
2022-11-13T04:38:03.643Z,988.98
2022-11-13T04:39:03.663Z,988.96
2022-11-13T04:40:03.528Z,988.96
2022-11-13T04:41:02.982Z,989.01
2022-11-13T04:42:03.007Z,988.93
2022-11-13T04:43:03.049Z,988.96
2022-11-13T04:44:03.497Z,989.12
2022-11-13T04:45:03.480Z,988.98
2022-11-13T04:46:03.554Z,989.18
2022-11-13T04:47:03.673Z,988.93
2022-11-13T04:48:03.675Z,989.10
2022-11-13T04:49:03.713Z,988.96
2022-11-13T04:50:03.709Z,989.01
2022-11-13T04:51:03.818Z,988.93
2022-11-13T04:52:03.936Z,989.04
2022-11-13T04:53:03.001Z,988.82
2022-11-13T04:54:02.919Z,988.79
2022-11-13T04:55:03.083Z,988.82
2022-11-13T04:56:03.113Z,988.90
2022-11-13T04:57:03.158Z,988.79
2022-11-13T04:58:03.076Z,988.93
2022-11-13T04:59:03.167Z,988.82
2022-11-13T05:00:03.301Z,988.93
2022-11-13T05:01:03.259Z,988.93
2022-11-13T05:02:03.560Z,988.84
2022-11-13T05:03:03.418Z,988.93
2022-11-13T05:04:03.450Z,988.71
2022-11-13T05:05:05.743Z,988.76
2022-11-13T05:06:03.521Z,988.96
2022-11-13T05:07:03.728Z,988.79
2022-11-13T05:08:03.636Z,988.65
2022-11-13T05:09:03.534Z,988.87
2022-11-13T05:10:03.745Z,988.76
2022-11-13T05:11:03.730Z,988.76
2022-11-13T05:12:03.755Z,988.73
2022-11-13T05:13:03.823Z,988.68
2022-11-13T05:14:04.217Z,988.82
2022-11-13T05:15:03.046Z,988.85
2022-11-13T05:16:03.039Z,988.76
2022-11-13T05:17:03.202Z,988.82
2022-11-13T05:18:03.251Z,988.65
2022-11-13T05:19:03.300Z,988.65
2022-11-13T05:20:03.270Z,988.62
2022-11-13T05:21:03.331Z,988.65
2022-11-13T05:22:03.449Z,988.51
2022-11-13T05:23:03.429Z,988.51
2022-11-13T05:24:03.473Z,988.51
2022-11-13T05:25:03.760Z,988.57
2022-11-13T05:26:02.971Z,988.48
2022-11-13T05:27:03.063Z,988.46
2022-11-13T05:28:03.030Z,988.43
2022-11-13T05:29:03.728Z,988.46
2022-11-13T05:30:03.779Z,988.43
2022-11-13T05:31:03.466Z,988.35
2022-11-13T05:32:03.546Z,988.49
2022-11-13T05:33:03.690Z,988.51
2022-11-13T05:34:06.460Z,988.46
2022-11-13T05:35:03.490Z,988.54
2022-11-13T05:36:03.511Z,988.43
2022-11-13T05:37:03.244Z,988.43
2022-11-13T05:38:03.254Z,988.40
2022-11-13T05:39:03.420Z,988.37
2022-11-13T05:40:03.488Z,988.43
2022-11-13T05:41:03.534Z,988.25
2022-11-13T05:42:03.652Z,988.26
2022-11-13T05:43:03.717Z,988.37
2022-11-13T05:44:03.770Z,988.19
2022-11-13T05:45:03.827Z,988.29
2022-11-13T05:46:02.973Z,988.25
2022-11-13T05:47:03.103Z,988.29
2022-11-13T05:48:03.494Z,988.19
2022-11-13T05:49:03.467Z,988.25
2022-11-13T05:50:03.782Z,988.22
2022-11-13T05:51:03.615Z,988.19
2022-11-13T05:52:03.779Z,988.08
2022-11-13T05:53:03.745Z,988.16
2022-11-13T05:54:03.772Z,988.11
2022-11-13T05:55:03.908Z,988.14
2022-11-13T05:56:02.974Z,988.16
2022-11-13T05:57:02.936Z,988.08
2022-11-13T05:58:03.089Z,988.11
2022-11-13T05:59:03.157Z,988.14
2022-11-13T06:00:04.417Z,988.08
2022-11-13T06:01:03.853Z,988.00
2022-11-13T06:02:03.969Z,988.05
2022-11-13T06:03:03.037Z,988.08
2022-11-13T06:04:02.884Z,988.00
2022-11-13T06:05:03.050Z,988.08
2022-11-13T06:06:03.185Z,988.05
2022-11-13T06:07:03.352Z,988.05
2022-11-13T06:08:03.270Z,988.11
2022-11-13T06:09:03.353Z,988.08
2022-11-13T06:10:03.404Z,988.05
2022-11-13T06:11:03.518Z,988.00
2022-11-13T06:12:03.625Z,988.05
2022-11-13T06:13:03.660Z,988.11
2022-11-13T06:14:03.740Z,988.19
2022-11-13T06:15:03.653Z,988.14
2022-11-13T06:16:03.760Z,988.00
2022-11-13T06:17:03.914Z,988.16
2022-11-13T06:18:03.845Z,988.08
2022-11-13T06:19:03.861Z,987.94
2022-11-13T06:20:03.002Z,988.08
2022-11-13T06:21:02.978Z,988.11
2022-11-13T06:22:02.929Z,988.03
2022-11-13T06:23:03.028Z,988.05
2022-11-13T06:24:03.034Z,988.14
2022-11-13T06:25:03.101Z,988.11
2022-11-13T06:26:02.982Z,987.91
2022-11-13T06:27:03.153Z,987.91
2022-11-13T06:28:03.205Z,987.97
2022-11-13T06:29:03.085Z,988.05
2022-11-13T06:30:03.101Z,988.05
2022-11-13T06:31:03.185Z,987.87
2022-11-13T06:32:03.397Z,988.05
2022-11-13T06:33:03.524Z,988.03
2022-11-13T06:34:03.483Z,988.17
2022-11-13T06:35:03.478Z,988.25
2022-11-13T06:36:03.552Z,988.14
2022-11-13T06:37:03.444Z,988.11
2022-11-13T06:38:03.634Z,988.05
2022-11-13T06:39:03.610Z,988.11
2022-11-13T06:40:03.242Z,988.05
2022-11-13T06:41:03.224Z,988.11
2022-11-13T06:42:03.185Z,988.05
2022-11-13T06:43:03.134Z,988.11
2022-11-13T06:44:03.954Z,988.03
2022-11-13T06:45:03.490Z,988.00
2022-11-13T06:46:03.599Z,987.91
2022-11-13T06:47:03.629Z,988.03
2022-11-13T06:48:03.831Z,988.03
2022-11-13T06:49:03.737Z,988.14
2022-11-13T06:50:03.697Z,988.14
2022-11-13T06:51:03.833Z,988.05
2022-11-13T06:52:02.924Z,988.08
2022-11-13T06:53:03.040Z,987.91
2022-11-13T06:54:02.948Z,987.94
2022-11-13T06:55:03.092Z,987.91
2022-11-13T06:56:03.132Z,987.91
2022-11-13T06:57:03.162Z,987.97
2022-11-13T06:58:03.280Z,987.86
2022-11-13T06:59:08.734Z,987.81
2022-11-13T07:00:03.317Z,987.91
2022-11-13T07:01:03.317Z,987.72
2022-11-13T07:02:03.396Z,987.78
2022-11-13T07:03:03.479Z,987.80
2022-11-13T07:04:03.398Z,987.78
2022-11-13T07:05:03.661Z,987.72
2022-11-13T07:06:02.990Z,987.66
2022-11-13T07:07:03.169Z,987.64
2022-11-13T07:08:03.969Z,987.78
2022-11-13T07:09:03.902Z,987.69
2022-11-13T07:10:03.066Z,987.75
2022-11-13T07:11:03.038Z,987.80
2022-11-13T07:12:03.110Z,987.80
2022-11-13T07:13:03.106Z,987.86
2022-11-13T07:14:03.200Z,987.86
2022-11-13T07:15:03.185Z,987.75
2022-11-13T07:16:17.895Z,987.77
2022-11-13T07:17:10.720Z,987.72
2022-11-13T07:18:03.003Z,987.77
2022-11-13T07:19:03.012Z,987.66
2022-11-13T07:20:03.092Z,987.69
2022-11-13T07:21:03.467Z,987.75
2022-11-13T07:22:02.979Z,987.52
2022-11-13T07:23:03.116Z,987.58
2022-11-13T07:24:03.073Z,987.66
2022-11-13T07:25:03.125Z,987.66
2022-11-13T07:26:03.225Z,987.69
2022-11-13T07:27:03.291Z,987.66
2022-11-13T07:28:03.392Z,987.66
2022-11-13T07:29:03.493Z,987.66
2022-11-13T07:30:04.458Z,987.63
2022-11-13T07:31:03.579Z,987.60
2022-11-13T07:32:03.624Z,987.58
2022-11-13T07:33:03.743Z,987.63
2022-11-13T07:34:03.841Z,987.69
2022-11-13T07:35:03.750Z,987.63
2022-11-13T07:36:03.865Z,987.66
2022-11-13T07:37:02.905Z,987.66
2022-11-13T07:38:02.913Z,987.66
2022-11-13T07:39:02.967Z,987.71
2022-11-13T07:40:03.075Z,987.71
2022-11-13T07:41:03.116Z,987.66
2022-11-13T07:42:03.113Z,987.49
2022-11-13T07:43:03.148Z,987.71
2022-11-13T07:44:09.667Z,987.80
2022-11-13T07:45:03.166Z,987.60
2022-11-13T07:46:03.211Z,987.54
2022-11-13T07:47:03.160Z,987.63
2022-11-13T07:48:03.089Z,987.35
2022-11-13T07:49:03.112Z,987.49
2022-11-13T07:50:11.085Z,987.49
2022-11-13T07:51:03.678Z,987.49
2022-11-13T07:52:03.681Z,987.49
2022-11-13T07:53:03.731Z,987.63
2022-11-13T07:54:03.835Z,987.51
2022-11-13T07:55:03.782Z,987.51
2022-11-13T07:56:03.926Z,987.48
2022-11-13T07:57:03.842Z,987.40
2022-11-13T07:58:02.996Z,987.45
2022-11-13T07:59:03.121Z,987.45
2022-11-13T08:00:03.083Z,987.56
2022-11-13T08:01:03.419Z,987.48
2022-11-13T08:02:03.176Z,987.34
2022-11-13T08:03:03.286Z,987.42
2022-11-13T08:04:03.305Z,987.31
2022-11-13T08:05:03.345Z,987.31
2022-11-13T08:06:03.413Z,987.53
2022-11-13T08:07:03.400Z,987.31
2022-11-13T08:08:03.436Z,987.53
2022-11-13T08:09:03.551Z,987.28
2022-11-13T08:10:03.597Z,987.53
2022-11-13T08:11:03.660Z,987.33
2022-11-13T08:12:03.815Z,987.30
2022-11-13T08:13:02.917Z,987.39
2022-11-13T08:14:03.137Z,987.39
2022-11-13T08:15:03.126Z,987.39
2022-11-13T08:16:03.681Z,987.33
2022-11-13T08:17:03.691Z,987.47
2022-11-13T08:18:03.848Z,987.41
2022-11-13T08:19:03.931Z,987.38
2022-11-13T08:20:03.024Z,987.44
2022-11-13T08:21:02.930Z,987.44
2022-11-13T08:22:02.988Z,987.38
2022-11-13T08:23:03.054Z,987.60
2022-11-13T08:24:03.295Z,987.54
2022-11-13T08:25:03.428Z,987.46
2022-11-13T08:26:03.687Z,987.51
2022-11-13T08:27:03.560Z,987.43
2022-11-13T08:28:05.553Z,987.54
2022-11-13T08:29:03.628Z,987.43
2022-11-13T08:30:03.676Z,987.32
2022-11-13T08:31:03.709Z,987.43
2022-11-13T08:32:03.895Z,987.34
2022-11-13T08:33:03.919Z,987.34
2022-11-13T08:34:03.058Z,987.40
2022-11-13T08:35:02.983Z,987.39
2022-11-13T08:36:03.038Z,987.36
2022-11-13T08:37:03.204Z,987.36
2022-11-13T08:38:03.227Z,987.17
2022-11-13T08:39:03.370Z,987.22
2022-11-13T08:40:03.315Z,987.25
2022-11-13T08:41:09.716Z,987.33
2022-11-13T08:42:03.112Z,987.27
2022-11-13T08:43:03.001Z,987.27
2022-11-13T08:44:02.993Z,987.22
2022-11-13T08:45:03.041Z,987.30
2022-11-13T08:46:03.611Z,987.19
2022-11-13T08:47:03.724Z,987.27
2022-11-13T08:48:03.687Z,987.24
2022-11-13T08:49:03.752Z,987.21
2022-11-13T08:50:03.857Z,987.15
2022-11-13T08:51:02.980Z,987.29
2022-11-13T08:52:03.058Z,987.12
2022-11-13T08:53:02.995Z,987.18
2022-11-13T08:54:03.208Z,987.32
2022-11-13T08:55:03.238Z,987.18
2022-11-13T08:56:03.168Z,987.20
2022-11-13T08:57:06.434Z,987.29
2022-11-13T08:58:03.313Z,987.26
2022-11-13T08:59:03.278Z,987.14
2022-11-13T09:00:03.346Z,987.20
2022-11-13T09:01:03.368Z,987.26
2022-11-13T09:02:03.325Z,987.34
2022-11-13T09:03:03.353Z,987.17
2022-11-13T09:04:03.516Z,987.25
2022-11-13T09:05:03.540Z,987.20
2022-11-13T09:06:03.572Z,987.25
2022-11-13T09:07:03.589Z,987.31
2022-11-13T09:08:03.575Z,987.11
2022-11-13T09:09:03.791Z,987.16
2022-11-13T09:10:03.755Z,987.11
2022-11-13T09:11:03.732Z,987.36
2022-11-13T09:12:03.720Z,987.10
2022-11-13T09:13:03.801Z,987.22
2022-11-13T09:14:02.997Z,987.13
2022-11-13T09:15:03.003Z,987.13
2022-11-13T09:16:03.067Z,987.21
2022-11-13T09:17:03.129Z,987.07
2022-11-13T09:18:03.154Z,987.32
2022-11-13T09:19:03.110Z,987.27
2022-11-13T09:20:06.152Z,987.12
2022-11-13T09:21:03.218Z,987.21
2022-11-13T09:22:03.399Z,987.15
2022-11-13T09:23:03.541Z,987.37
2022-11-13T09:24:03.461Z,987.26
2022-11-13T09:25:03.705Z,987.26
2022-11-13T09:26:03.611Z,987.20
2022-11-13T09:27:03.560Z,987.40
2022-11-13T09:28:03.771Z,987.20
2022-11-13T09:29:03.954Z,987.23
2022-11-13T09:30:03.943Z,987.11
2022-11-13T09:31:03.937Z,987.20
2022-11-13T09:32:03.099Z,987.08
2022-11-13T09:33:03.079Z,987.25
2022-11-13T09:34:03.342Z,987.11
2022-11-13T09:35:03.299Z,987.05
2022-11-13T09:36:03.352Z,987.11
2022-11-13T09:37:03.756Z,987.08
2022-11-13T09:38:11.364Z,987.33
2022-11-13T09:39:03.767Z,987.30
2022-11-13T09:40:03.990Z,987.16
2022-11-13T09:41:03.947Z,987.10
2022-11-13T09:42:02.961Z,987.30
2022-11-13T09:43:02.941Z,987.27
2022-11-13T09:44:02.980Z,987.27
2022-11-13T09:45:03.002Z,987.32
2022-11-13T09:46:03.020Z,987.24
2022-11-13T09:47:03.209Z,987.38
2022-11-13T09:48:03.343Z,987.38
2022-11-13T09:49:03.394Z,987.40
2022-11-13T09:50:03.343Z,987.32
2022-11-13T09:51:03.471Z,987.32
2022-11-13T09:52:07.045Z,987.34
2022-11-13T09:53:03.421Z,987.20
2022-11-13T09:54:03.540Z,987.28
2022-11-13T09:55:03.504Z,987.34
2022-11-13T09:56:03.601Z,987.17
2022-11-13T09:57:03.627Z,987.28
2022-11-13T09:58:03.613Z,987.34
2022-11-13T09:59:03.594Z,987.39
2022-11-13T10:00:03.649Z,987.19
2022-11-13T10:01:03.700Z,987.13
2022-11-13T10:02:03.650Z,987.19
2022-11-13T10:03:03.742Z,987.22
2022-11-13T10:04:04.890Z,987.16
2022-11-13T10:05:03.852Z,987.21
2022-11-13T10:06:03.825Z,987.13
2022-11-13T10:07:03.984Z,987.24
2022-11-13T10:08:02.966Z,987.13
2022-11-13T10:09:03.025Z,987.07
2022-11-13T10:10:03.167Z,987.29
2022-11-13T10:11:03.187Z,987.21
2022-11-13T10:12:03.190Z,987.29
2022-11-13T10:13:03.271Z,987.15
2022-11-13T10:14:03.318Z,987.18
2022-11-13T10:15:03.288Z,987.23
2022-11-13T10:16:03.285Z,987.17
2022-11-13T10:17:03.382Z,987.23
2022-11-13T10:18:03.468Z,987.17
2022-11-13T10:19:03.395Z,987.09
2022-11-13T10:20:03.386Z,987.23
2022-11-13T10:21:09.820Z,987.17
2022-11-13T10:22:33.697Z,987.31
2022-11-13T10:23:03.617Z,987.23
2022-11-13T10:24:03.607Z,987.17
2022-11-13T10:25:03.656Z,987.05
2022-11-13T10:26:03.859Z,987.19
2022-11-13T10:27:03.850Z,987.16
2022-11-13T10:28:48.638Z,987.16
2022-11-13T10:29:03.990Z,987.13
2022-11-13T10:30:02.955Z,986.99
2022-11-13T10:31:03.073Z,987.10
2022-11-13T10:32:03.030Z,987.13
2022-11-13T10:33:03.070Z,987.10
2022-11-13T10:34:03.066Z,987.07
2022-11-13T10:35:03.112Z,987.04
2022-11-13T10:36:03.217Z,986.87
2022-11-13T10:37:03.225Z,987.01
2022-11-13T10:38:09.013Z,986.98
2022-11-13T10:39:03.258Z,986.87
2022-11-13T10:40:03.306Z,986.78
2022-11-13T10:41:03.383Z,986.95
2022-11-13T10:42:03.418Z,986.81
2022-11-13T10:43:03.404Z,986.83
2022-11-13T10:44:03.478Z,987.03
2022-11-13T10:45:12.264Z,987.00
2022-11-13T10:46:03.600Z,986.86
2022-11-13T10:47:03.599Z,986.94
2022-11-13T10:48:05.363Z,986.83
2022-11-13T10:49:03.620Z,986.83
2022-11-13T10:50:03.689Z,986.77
2022-11-13T10:51:03.776Z,986.85
2022-11-13T10:52:11.212Z,986.79
2022-11-13T10:53:03.829Z,986.74
2022-11-13T10:54:02.957Z,986.68
2022-11-13T10:55:03.166Z,986.59
2022-11-13T10:56:03.151Z,986.56
2022-11-13T10:57:03.237Z,986.52
2022-11-13T10:58:03.308Z,986.62
2022-11-13T10:59:03.312Z,986.56
2022-11-13T11:00:03.296Z,986.61
2022-11-13T11:01:03.300Z,986.54
2022-11-13T11:02:03.388Z,986.56
2022-11-13T11:03:03.339Z,986.45
2022-11-13T11:04:03.228Z,986.34
2022-11-13T11:05:03.217Z,986.33
2022-11-13T11:06:03.127Z,986.33
2022-11-13T11:07:21.463Z,986.39
2022-11-13T11:08:03.340Z,986.42
2022-11-13T11:09:03.218Z,986.53
2022-11-13T11:10:03.205Z,986.39
2022-11-13T11:11:03.160Z,986.53
2022-11-13T11:12:03.326Z,986.44
2022-11-13T11:13:03.386Z,986.38
2022-11-13T11:14:03.492Z,986.35
2022-11-13T11:15:03.465Z,986.15
2022-11-13T11:16:03.547Z,986.32
2022-11-13T11:17:03.729Z,986.29
2022-11-13T11:18:03.769Z,986.23
2022-11-13T11:19:03.819Z,986.29
2022-11-13T11:20:04.066Z,986.26
2022-11-13T11:21:03.858Z,986.26
2022-11-13T11:22:03.065Z,986.34
2022-11-13T11:23:03.143Z,986.20
2022-11-13T11:24:03.101Z,986.22
2022-11-13T11:25:03.179Z,986.37
2022-11-13T11:26:03.108Z,986.31
2022-11-13T11:27:03.267Z,986.31
2022-11-13T11:28:03.302Z,986.22
2022-11-13T11:29:03.313Z,986.28
2022-11-13T11:30:03.316Z,986.10
2022-11-13T11:31:03.335Z,986.30
2022-11-13T11:32:03.309Z,986.16
2022-11-13T11:33:03.369Z,986.19
2022-11-13T11:34:03.337Z,986.21
2022-11-13T11:35:03.307Z,986.19
2022-11-13T11:36:03.441Z,986.16
2022-11-13T11:37:03.427Z,986.21
2022-11-13T11:38:03.652Z,986.04
2022-11-13T11:39:03.887Z,986.15
2022-11-13T11:40:02.923Z,986.24
2022-11-13T11:41:02.946Z,985.98
2022-11-13T11:42:03.498Z,986.09
2022-11-13T11:43:03.396Z,986.21
2022-11-13T11:44:03.564Z,986.06
2022-11-13T11:45:03.580Z,986.06
2022-11-13T11:46:03.586Z,986.09
2022-11-13T11:47:03.674Z,985.92
2022-11-13T11:48:03.923Z,986.17
2022-11-13T11:49:02.937Z,986.14
2022-11-13T11:50:03.028Z,986.09
2022-11-13T11:51:03.133Z,986.23
2022-11-13T11:52:03.090Z,986.34
2022-11-13T11:53:03.191Z,986.17
2022-11-13T11:54:03.254Z,986.14
2022-11-13T11:55:03.304Z,986.28
2022-11-13T11:56:03.297Z,986.22
2022-11-13T11:57:03.399Z,986.34
2022-11-13T11:58:03.523Z,986.11
2022-11-13T11:59:03.745Z,986.34
2022-11-13T12:00:03.671Z,986.25
2022-11-13T12:01:03.752Z,986.22
2022-11-13T12:02:03.854Z,986.16
2022-11-13T12:03:02.925Z,986.31
2022-11-13T12:04:03.139Z,986.14
2022-11-13T12:05:03.277Z,986.19
2022-11-13T12:06:03.089Z,986.25
2022-11-13T12:07:03.232Z,986.13
2022-11-13T12:08:03.217Z,986.19
2022-11-13T12:09:03.280Z,986.13
2022-11-13T12:10:03.222Z,986.05
2022-11-13T12:11:03.309Z,986.33
2022-11-13T12:12:03.408Z,986.16
2022-11-13T12:13:03.373Z,986.08
2022-11-13T12:14:03.333Z,986.16
2022-11-13T12:15:03.502Z,986.16
2022-11-13T12:16:03.537Z,986.05
2022-11-13T12:17:16.445Z,986.10
2022-11-13T12:18:03.586Z,986.08
2022-11-13T12:19:03.658Z,986.10
2022-11-13T12:20:03.715Z,985.96
2022-11-13T12:21:03.835Z,985.99
2022-11-13T12:22:03.040Z,986.02
2022-11-13T12:23:02.962Z,985.82
2022-11-13T12:24:03.079Z,985.90
2022-11-13T12:25:03.078Z,985.93
2022-11-13T12:26:03.160Z,985.87
2022-11-13T12:27:03.239Z,985.79
2022-11-13T12:28:03.257Z,985.82